Portada
METAR-TAF:

METAR-TAF

Aeroports :

Al Wajh, Aràbia Saudita

latitud: 26-12N, longitud: 036-28E, altitud: 20 m

Observació

L'informe es va fer fa 1 hora i 10 minuts, a les 19:00 UTC
Vent 4 kt del Nord/Nord-Est
Temperatura 20°C
Humitat 56%
Pressió 1014 hPa
Visibilitat 10 km o més
sense núvols per sota de 1500 mi sense presència de cumulonimbus.

METAR: OEWJ 261900Z 03004KT CAVOK 20/11 Q1014 NOSIG

Hora: 23:10 (20:10 UTC)

Pronòstic

L'informe es va fer fa 9 hores i 10 minuts, a les 11:00 UTC
Pronòstic vàlid del 26 a les 12 UTC al 27 a les 18 UTC
Vent 10 kt del Nord-Oest
Visibilitat: 8000 m
Núvols disperses a una alçada de 4000 ft
Evolucionant progressivament
l' 26 a les 18 UTC al 26 a les 20 UTC
Vent 10 kt del Nord
Evolucionant progressivament
l' 26 a les 22 UTC al 26 a les 24 UTC
Vent 12 kt del Nord-Est

TAF: OEWJ 261100Z 2612/2718 31010KT 8000 SCT040 BECMG 2618/2620 36010KT BECMG 2622/2624 04012KT

Observacions i pronòstics meteorològics de més de 4000 aeroports (METAR i TAF).

Les estacions disponibles són els punts grocs i vermells al mapa.

Posi el ratolí al punt desitjat per veure el nom de l'estació.

Feu clic per veure les observacions i els pronòstics meteorològics.

Per canviar el mapa: feu clic els botons verds amb una creu de color negre per apropar; al botó verd amb un guió per allunyar la imatge; o en les fletxes verdes per a mapes adjacents.


METAR-TAF: